ADDS METAR Data INFO
IDs: Format: Raw Decoded Include TAF

Data at: 1531 UTC 18 Jun 2018

KBGM 181453Z 26012KT 10SM CLR 29/21 A2998 RMK AO2 SLP138 T02890211 58012
KBGM 181353Z 26009KT 10SM CLR 27/21 A3000 RMK AO2 SLP144 T02720211
KBGM 181253Z 24008KT 10SM CLR 24/19 A3001 RMK AO2 SLP150 T02390194
KBGM 181153Z 23007KT 10SM CLR 22/18 A3002 RMK AO2 SLP153 T02220183 10222 20211 58005
KBGM 181053Z 22008KT 10SM CLR 21/18 A3002 RMK AO2 SLP154 T02110183
KBGM 180953Z 22007KT 10SM CLR 21/18 A3003 RMK AO2 SLP157 T02110178
KBGM 180853Z AUTO 22006KT 10SM CLR 21/18 A3004 RMK AO2 SLP158 T02110178 58009
KBGM 180753Z AUTO 22007KT 10SM CLR 21/18 A3005 RMK AO2 SLP162 T02110178
KBGM 180653Z AUTO 23006KT 10SM CLR 21/17 A3006 RMK AO2 SLP165 T02110172
KBGM 180553Z AUTO 22007KT 10SM CLR 22/17 A3006 RMK AO2 SLP167 T02170172 10267 20217 58001
KBGM 180453Z AUTO 23006KT 10SM CLR 22/17 A3008 RMK AO2 SLP174 T02170167 402890144
KBGM 180353Z AUTO 22008KT 10SM CLR 23/17 A3007 RMK AO2 SLP169 T02280167
KBGM 180253Z 21006KT 10SM CLR 23/16 A3007 RMK AO2 SLP170 T02330161 55001
KBGM 180153Z 21007KT 10SM CLR 24/16 A3006 RMK AO2 SLP168 T02440161
KBGM 180053Z 19004KT 10SM CLR 25/16 A3006 RMK AO2 SLP167 T02500161
KBGM 172353Z 22003KT 10SM CLR 27/16 A3007 RMK AO2 SLP171 T02670161 10289 20267 58007
KBGM 172253Z 22004KT 10SM CLR 28/16 A3008 RMK AO2 SLP175 T02780161
KBGM 172153Z 29004KT 10SM CLR 28/16 A3008 RMK AO2 SLP178 T02830156
KBGM 172053Z 20005KT 10SM CLR 28/16 A3009 RMK AO2 SLP180 T02780156 58006
KBGM 171953Z 28004KT 10SM CLR 28/15 A3010 RMK AO2 SLP184 T02830150
KBGM 171853Z AUTO VRB05KT 10SM CLR 28/14 A3010 RMK AO2 SLP184 T02780144
KBGM 171753Z VRB06KT 10SM CLR 28/14 A3011 RMK AO2 SLP185 T02780139 10278 20172 58007
KBGM 171653Z 20005KT 10SM CLR 27/14 A3012 RMK AO2 SLP187 T02670139
KBGM 171553Z VRB03KT 10SM CLR 26/12 A3012 RMK AO2 SLP190 T02610122
KBGM 171453Z VRB04KT 10SM CLR 24/14 A3013 RMK AO2 SLP192 T02440139 58001
KBGM 171353Z 00000KT 10SM CLR 22/12 A3015 RMK AO2 SLP200 T02220122
KBGM 171253Z 25004KT 10SM CLR 19/12 A3014 RMK AO2 SLP195 T01940122
KBGM 171153Z 27004KT 10SM CLR 18/12 A3013 RMK AO2 SLP194 T01780122 10183 20144 53019
KBGM 171053Z 14003KT 10SM CLR 16/11 A3011 RMK AO2 SLP186 T01560106
KBGM 170953Z 17003KT 10SM CLR 14/10 A3008 RMK AO2 SLP180 T01440100
KBGM 170853Z AUTO 14003KT 10SM CLR 14/10 A3007 RMK AO2 SLP176 T01440100 50001
KBGM 170753Z AUTO 10003KT 10SM CLR 15/10 A3008 RMK AO2 SLP179 T01500100
KBGM 170653Z AUTO 13003KT 10SM CLR 16/10 A3007 RMK AO2 SLP176 T01560100
KBGM 170553Z AUTO 05004KT 10SM CLR 16/09 A3007 RMK AO2 SLP175 T01610094 10239 20161 55001
KBGM 170453Z AUTO 00000KT 10SM CLR 19/09 A3007 RMK AO2 SLP173 T01940094 402610100
KBGM 170353Z AUTO 17003KT 10SM CLR 19/09 A3008 RMK AO2 SLP176 T01940094